sensor_id;sensor_type;location;lat;lon;timestamp;P1;durP1;ratioP1;P2;durP2;ratioP2
63836;SDS011;49991;50.518;30.486;2022-08-19T00:01:55;9.68;;;4.78;;
63836;SDS011;49991;50.518;30.486;2022-08-19T00:04:23;10.10;;;5.05;;
63836;SDS011;49991;50.518;30.486;2022-08-19T00:06:53;9.30;;;4.75;;
63836;SDS011;49991;50.518;30.486;2022-08-19T00:09:22;8.93;;;4.82;;
63836;SDS011;49991;50.518;30.486;2022-08-19T00:11:50;9.25;;;4.80;;
63836;SDS011;49991;50.518;30.486;2022-08-19T00:14:17;9.35;;;5.03;;
63836;SDS011;49991;50.518;30.486;2022-08-19T00:16:46;6.95;;;4.90;;
63836;SDS011;49991;50.518;30.486;2022-08-19T00:19:13;7.63;;;5.10;;
63836;SDS011;49991;50.518;30.486;2022-08-19T00:21:40;7.93;;;5.25;;
63836;SDS011;49991;50.518;30.486;2022-08-19T00:24:08;8.25;;;5.13;;
63836;SDS011;49991;50.518;30.486;2022-08-19T00:26:38;6.53;;;4.57;;
63836;SDS011;49991;50.518;30.486;2022-08-19T00:29:07;5.70;;;4.85;;
63836;SDS011;49991;50.518;30.486;2022-08-19T00:31:36;8.77;;;5.30;;
63836;SDS011;49991;50.518;30.486;2022-08-19T00:34:03;8.02;;;5.05;;
63836;SDS011;49991;50.518;30.486;2022-08-19T00:36:30;9.75;;;5.43;;
63836;SDS011;49991;50.518;30.486;2022-08-19T00:38:57;8.05;;;5.22;;
63836;SDS011;49991;50.518;30.486;2022-08-19T00:41:24;10.35;;;5.20;;
63836;SDS011;49991;50.518;30.486;2022-08-19T00:43:59;6.95;;;4.80;;
63836;SDS011;49991;50.518;30.486;2022-08-19T00:46:28;8.20;;;5.32;;
63836;SDS011;49991;50.518;30.486;2022-08-19T00:48:55;11.27;;;5.53;;
63836;SDS011;49991;50.518;30.486;2022-08-19T00:51:22;9.10;;;5.55;;
63836;SDS011;49991;50.518;30.486;2022-08-19T00:53:50;6.00;;;5.40;;
63836;SDS011;49991;50.518;30.486;2022-08-19T00:56:16;7.57;;;5.10;;
63836;SDS011;49991;50.518;30.486;2022-08-19T00:58:44;10.25;;;5.50;;
63836;SDS011;49991;50.518;30.486;2022-08-19T01:01:14;7.72;;;5.53;;
63836;SDS011;49991;50.518;30.486;2022-08-19T01:03:41;9.15;;;5.43;;
63836;SDS011;49991;50.518;30.486;2022-08-19T01:06:08;7.22;;;5.65;;
63836;SDS011;49991;50.518;30.486;2022-08-19T01:08:34;7.85;;;6.05;;
63836;SDS011;49991;50.518;30.486;2022-08-19T01:11:08;8.35;;;6.70;;
63836;SDS011;49991;50.518;30.486;2022-08-19T01:13:35;9.95;;;5.43;;
63836;SDS011;49991;50.518;30.486;2022-08-19T01:16:03;9.65;;;5.55;;
63836;SDS011;49991;50.518;30.486;2022-08-19T01:18:35;8.48;;;5.15;;
63836;SDS011;49991;50.518;30.486;2022-08-19T01:21:05;11.60;;;5.60;;
63836;SDS011;49991;50.518;30.486;2022-08-19T01:23:38;9.98;;;5.30;;
63836;SDS011;49991;50.518;30.486;2022-08-19T01:26:11;10.07;;;5.78;;
63836;SDS011;49991;50.518;30.486;2022-08-19T01:28:40;10.95;;;5.72;;
63836;SDS011;49991;50.518;30.486;2022-08-19T01:31:09;8.85;;;5.53;;
63836;SDS011;49991;50.518;30.486;2022-08-19T01:33:38;7.07;;;5.60;;
63836;SDS011;49991;50.518;30.486;2022-08-19T01:36:08;9.00;;;5.50;;
63836;SDS011;49991;50.518;30.486;2022-08-19T01:38:40;9.57;;;5.47;;
63836;SDS011;49991;50.518;30.486;2022-08-19T01:41:09;8.05;;;5.57;;
63836;SDS011;49991;50.518;30.486;2022-08-19T01:43:37;10.13;;;6.05;;
63836;SDS011;49991;50.518;30.486;2022-08-19T01:46:04;8.02;;;5.60;;
63836;SDS011;49991;50.518;30.486;2022-08-19T01:48:35;12.70;;;5.72;;
63836;SDS011;49991;50.518;30.486;2022-08-19T01:51:03;10.98;;;6.05;;
63836;SDS011;49991;50.518;30.486;2022-08-19T01:53:31;11.00;;;5.60;;
63836;SDS011;49991;50.518;30.486;2022-08-19T01:55:59;6.90;;;5.20;;
63836;SDS011;49991;50.518;30.486;2022-08-19T01:58:27;7.05;;;5.65;;
63836;SDS011;49991;50.518;30.486;2022-08-19T02:00:57;8.35;;;5.80;;
63836;SDS011;49991;50.518;30.486;2022-08-19T02:03:24;6.07;;;5.47;;
63836;SDS011;49991;50.518;30.486;2022-08-19T02:05:55;8.57;;;5.68;;
63836;SDS011;49991;50.518;30.486;2022-08-19T02:08:22;8.25;;;5.80;;
63836;SDS011;49991;50.518;30.486;2022-08-19T02:10:49;7.63;;;5.47;;
63836;SDS011;49991;50.518;30.486;2022-08-19T02:13:17;7.18;;;5.75;;
63836;SDS011;49991;50.518;30.486;2022-08-19T02:15:44;7.25;;;5.72;;
63836;SDS011;49991;50.518;30.486;2022-08-19T02:18:11;14.65;;;6.50;;
63836;SDS011;49991;50.518;30.486;2022-08-19T02:20:38;9.05;;;5.80;;
63836;SDS011;49991;50.518;30.486;2022-08-19T02:23:06;7.35;;;5.82;;
63836;SDS011;49991;50.518;30.486;2022-08-19T02:25:33;11.65;;;6.70;;
63836;SDS011;49991;50.518;30.486;2022-08-19T02:28:00;6.13;;;5.53;;
63836;SDS011;49991;50.518;30.486;2022-08-19T02:30:28;10.15;;;5.55;;
63836;SDS011;49991;50.518;30.486;2022-08-19T02:32:55;8.52;;;5.90;;
63836;SDS011;49991;50.518;30.486;2022-08-19T02:35:21;13.38;;;6.18;;
63836;SDS011;49991;50.518;30.486;2022-08-19T02:37:48;7.45;;;5.63;;
63836;SDS011;49991;50.518;30.486;2022-08-19T02:40:32;8.65;;;5.70;;
63836;SDS011;49991;50.518;30.486;2022-08-19T02:43:00;10.52;;;5.50;;
63836;SDS011;49991;50.518;30.486;2022-08-19T02:45:32;6.90;;;5.28;;
63836;SDS011;49991;50.518;30.486;2022-08-19T02:47:59;7.45;;;5.45;;
63836;SDS011;49991;50.518;30.486;2022-08-19T02:50:26;8.15;;;5.65;;
63836;SDS011;49991;50.518;30.486;2022-08-19T02:52:53;9.27;;;5.47;;
63836;SDS011;49991;50.518;30.486;2022-08-19T02:55:19;10.10;;;5.53;;
63836;SDS011;49991;50.518;30.486;2022-08-19T02:57:46;6.65;;;5.22;;
63836;SDS011;49991;50.518;30.486;2022-08-19T03:00:13;6.25;;;5.47;;
63836;SDS011;49991;50.518;30.486;2022-08-19T03:02:42;11.43;;;5.93;;
63836;SDS011;49991;50.518;30.486;2022-08-19T03:05:09;8.57;;;5.60;;
63836;SDS011;49991;50.518;30.486;2022-08-19T03:07:36;9.68;;;5.22;;
63836;SDS011;49991;50.518;30.486;2022-08-19T03:10:04;6.78;;;5.18;;
63836;SDS011;49991;50.518;30.486;2022-08-19T03:12:34;9.40;;;5.28;;
63836;SDS011;49991;50.518;30.486;2022-08-19T03:15:02;7.65;;;5.38;;
63836;SDS011;49991;50.518;30.486;2022-08-19T03:17:30;6.03;;;4.97;;
63836;SDS011;49991;50.518;30.486;2022-08-19T03:19:58;9.52;;;5.45;;
63836;SDS011;49991;50.518;30.486;2022-08-19T03:22:25;8.27;;;5.43;;
63836;SDS011;49991;50.518;30.486;2022-08-19T03:24:52;8.75;;;5.20;;
63836;SDS011;49991;50.518;30.486;2022-08-19T03:27:18;12.77;;;5.63;;
63836;SDS011;49991;50.518;30.486;2022-08-19T03:29:45;7.25;;;5.45;;
63836;SDS011;49991;50.518;30.486;2022-08-19T03:32:13;8.77;;;5.40;;
63836;SDS011;49991;50.518;30.486;2022-08-19T03:34:39;6.55;;;4.82;;
63836;SDS011;49991;50.518;30.486;2022-08-19T03:37:08;8.93;;;5.13;;
63836;SDS011;49991;50.518;30.486;2022-08-19T03:39:37;7.60;;;5.53;;
63836;SDS011;49991;50.518;30.486;2022-08-19T03:42:04;10.13;;;5.35;;
63836;SDS011;49991;50.518;30.486;2022-08-19T03:44:31;7.90;;;5.43;;
63836;SDS011;49991;50.518;30.486;2022-08-19T03:46:59;8.57;;;5.20;;
63836;SDS011;49991;50.518;30.486;2022-08-19T03:49:31;9.80;;;5.03;;
63836;SDS011;49991;50.518;30.486;2022-08-19T03:52:00;6.55;;;4.72;;
63836;SDS011;49991;50.518;30.486;2022-08-19T03:54:29;6.25;;;4.75;;
63836;SDS011;49991;50.518;30.486;2022-08-19T03:56:56;10.85;;;5.43;;
63836;SDS011;49991;50.518;30.486;2022-08-19T03:59:23;8.88;;;5.05;;
63836;SDS011;49991;50.518;30.486;2022-08-19T04:01:52;4.90;;;4.50;;
63836;SDS011;49991;50.518;30.486;2022-08-19T04:04:20;9.02;;;5.20;;
63836;SDS011;49991;50.518;30.486;2022-08-19T04:06:47;8.77;;;4.40;;
63836;SDS011;49991;50.518;30.486;2022-08-19T04:09:15;10.38;;;5.30;;
63836;SDS011;49991;50.518;30.486;2022-08-19T04:11:45;9.35;;;4.97;;
63836;SDS011;49991;50.518;30.486;2022-08-19T04:14:14;6.70;;;5.13;;
63836;SDS011;49991;50.518;30.486;2022-08-19T04:16:43;5.40;;;4.80;;
63836;SDS011;49991;50.518;30.486;2022-08-19T04:19:11;7.45;;;5.10;;
63836;SDS011;49991;50.518;30.486;2022-08-19T04:21:38;10.38;;;5.00;;
63836;SDS011;49991;50.518;30.486;2022-08-19T04:24:05;7.25;;;5.07;;
63836;SDS011;49991;50.518;30.486;2022-08-19T04:26:33;7.88;;;4.60;;
63836;SDS011;49991;50.518;30.486;2022-08-19T04:29:05;8.65;;;4.63;;
63836;SDS011;49991;50.518;30.486;2022-08-19T04:31:33;9.13;;;5.32;;
63836;SDS011;49991;50.518;30.486;2022-08-19T04:34:01;5.72;;;5.00;;
63836;SDS011;49991;50.518;30.486;2022-08-19T04:36:31;10.15;;;4.60;;
63836;SDS011;49991;50.518;30.486;2022-08-19T04:38:59;7.63;;;4.90;;
63836;SDS011;49991;50.518;30.486;2022-08-19T04:41:28;10.43;;;4.95;;
63836;SDS011;49991;50.518;30.486;2022-08-19T04:44:13;9.00;;;4.80;;
63836;SDS011;49991;50.518;30.486;2022-08-19T04:46:43;5.40;;;4.57;;
63836;SDS011;49991;50.518;30.486;2022-08-19T04:49:10;7.25;;;5.03;;
63836;SDS011;49991;50.518;30.486;2022-08-19T04:51:39;8.45;;;4.43;;
63836;SDS011;49991;50.518;30.486;2022-08-19T04:54:07;13.57;;;4.57;;
63836;SDS011;49991;50.518;30.486;2022-08-19T04:56:34;8.52;;;4.85;;
63836;SDS011;49991;50.518;30.486;2022-08-19T04:59:01;7.05;;;4.70;;
63836;SDS011;49991;50.518;30.486;2022-08-19T05:01:31;10.73;;;4.60;;
63836;SDS011;49991;50.518;30.486;2022-08-19T05:03:59;6.10;;;4.97;;
63836;SDS011;49991;50.518;30.486;2022-08-19T05:06:26;10.55;;;4.95;;
63836;SDS011;49991;50.518;30.486;2022-08-19T05:08:58;8.80;;;4.63;;
63836;SDS011;49991;50.518;30.486;2022-08-19T05:11:26;6.90;;;4.68;;
63836;SDS011;49991;50.518;30.486;2022-08-19T05:13:54;6.95;;;4.80;;
63836;SDS011;49991;50.518;30.486;2022-08-19T05:16:22;6.47;;;4.65;;
63836;SDS011;49991;50.518;30.486;2022-08-19T05:18:51;6.82;;;4.55;;
63836;SDS011;49991;50.518;30.486;2022-08-19T05:21:35;5.93;;;4.72;;
63836;SDS011;49991;50.518;30.486;2022-08-19T05:24:20;5.68;;;4.65;;
63836;SDS011;49991;50.518;30.486;2022-08-19T05:26:49;6.45;;;4.38;;
63836;SDS011;49991;50.518;30.486;2022-08-19T05:29:17;10.18;;;4.90;;
63836;SDS011;49991;50.518;30.486;2022-08-19T05:31:46;9.02;;;4.65;;
63836;SDS011;49991;50.518;30.486;2022-08-19T05:34:16;10.02;;;5.10;;
63836;SDS011;49991;50.518;30.486;2022-08-19T05:36:43;11.07;;;4.70;;
63836;SDS011;49991;50.518;30.486;2022-08-19T05:39:12;6.35;;;4.80;;
63836;SDS011;49991;50.518;30.486;2022-08-19T05:41:41;6.07;;;4.28;;
63836;SDS011;49991;50.518;30.486;2022-08-19T05:44:08;9.88;;;4.78;;
63836;SDS011;49991;50.518;30.486;2022-08-19T05:46:35;7.47;;;4.70;;
63836;SDS011;49991;50.518;30.486;2022-08-19T05:49:03;7.95;;;4.10;;
63836;SDS011;49991;50.518;30.486;2022-08-19T05:51:32;10.05;;;4.88;;
63836;SDS011;49991;50.518;30.486;2022-08-19T05:53:59;9.23;;;4.93;;
63836;SDS011;49991;50.518;30.486;2022-08-19T05:56:25;8.52;;;4.80;;
63836;SDS011;49991;50.518;30.486;2022-08-19T05:58:53;7.07;;;4.70;;
63836;SDS011;49991;50.518;30.486;2022-08-19T06:01:20;5.95;;;4.22;;
63836;SDS011;49991;50.518;30.486;2022-08-19T06:03:47;8.50;;;4.60;;
63836;SDS011;49991;50.518;30.486;2022-08-19T06:06:14;10.57;;;4.78;;
63836;SDS011;49991;50.518;30.486;2022-08-19T06:08:43;6.63;;;4.35;;
63836;SDS011;49991;50.518;30.486;2022-08-19T06:11:14;10.90;;;4.60;;
63836;SDS011;49991;50.518;30.486;2022-08-19T06:13:43;5.28;;;4.60;;
63836;SDS011;49991;50.518;30.486;2022-08-19T06:16:12;8.40;;;4.60;;
63836;SDS011;49991;50.518;30.486;2022-08-19T06:18:47;7.93;;;4.70;;
63836;SDS011;49991;50.518;30.486;2022-08-19T06:21:17;9.95;;;4.50;;
63836;SDS011;49991;50.518;30.486;2022-08-19T06:23:46;12.02;;;4.85;;
63836;SDS011;49991;50.518;30.486;2022-08-19T06:26:13;9.02;;;4.70;;
63836;SDS011;49991;50.518;30.486;2022-08-19T06:28:41;7.60;;;4.30;;
63836;SDS011;49991;50.518;30.486;2022-08-19T06:31:11;6.15;;;3.83;;
63836;SDS011;49991;50.518;30.486;2022-08-19T06:33:40;7.75;;;4.45;;
63836;SDS011;49991;50.518;30.486;2022-08-19T06:36:07;6.57;;;4.68;;
63836;SDS011;49991;50.518;30.486;2022-08-19T06:38:41;6.97;;;4.40;;
63836;SDS011;49991;50.518;30.486;2022-08-19T06:41:11;7.43;;;4.53;;
63836;SDS011;49991;50.518;30.486;2022-08-19T06:43:38;7.93;;;4.38;;
63836;SDS011;49991;50.518;30.486;2022-08-19T06:46:08;9.90;;;4.80;;
63836;SDS011;49991;50.518;30.486;2022-08-19T06:48:36;14.75;;;5.47;;
63836;SDS011;49991;50.518;30.486;2022-08-19T06:51:03;17.80;;;4.57;;
63836;SDS011;49991;50.518;30.486;2022-08-19T06:53:30;6.82;;;4.28;;
63836;SDS011;49991;50.518;30.486;2022-08-19T06:55:57;9.80;;;4.65;;
63836;SDS011;49991;50.518;30.486;2022-08-19T06:58:28;7.68;;;4.50;;
63836;SDS011;49991;50.518;30.486;2022-08-19T07:00:57;7.07;;;4.63;;
63836;SDS011;49991;50.518;30.486;2022-08-19T07:03:27;9.52;;;4.25;;
63836;SDS011;49991;50.518;30.486;2022-08-19T07:05:55;7.80;;;4.88;;
63836;SDS011;49991;50.518;30.486;2022-08-19T07:08:22;8.32;;;4.70;;
63836;SDS011;49991;50.518;30.486;2022-08-19T07:10:52;9.43;;;4.45;;
63836;SDS011;49991;50.518;30.486;2022-08-19T07:13:19;7.93;;;4.90;;
63836;SDS011;49991;50.518;30.486;2022-08-19T07:15:49;9.45;;;4.85;;
63836;SDS011;49991;50.518;30.486;2022-08-19T07:18:17;5.15;;;4.65;;
63836;SDS011;49991;50.518;30.486;2022-08-19T07:20:44;10.40;;;4.72;;
63836;SDS011;49991;50.518;30.486;2022-08-19T07:23:11;11.25;;;4.90;;
63836;SDS011;49991;50.518;30.486;2022-08-19T07:25:39;6.90;;;4.70;;
63836;SDS011;49991;50.518;30.486;2022-08-19T07:28:06;8.60;;;4.63;;
63836;SDS011;49991;50.518;30.486;2022-08-19T07:30:36;9.50;;;4.85;;
63836;SDS011;49991;50.518;30.486;2022-08-19T07:33:04;9.80;;;4.63;;
63836;SDS011;49991;50.518;30.486;2022-08-19T07:35:31;13.13;;;4.55;;
63836;SDS011;49991;50.518;30.486;2022-08-19T07:40:27;7.10;;;4.57;;
63836;SDS011;49991;50.518;30.486;2022-08-19T07:42:54;7.82;;;4.72;;
63836;SDS011;49991;50.518;30.486;2022-08-19T07:45:21;8.02;;;4.65;;
63836;SDS011;49991;50.518;30.486;2022-08-19T07:47:48;11.85;;;4.90;;
63836;SDS011;49991;50.518;30.486;2022-08-19T07:50:16;6.45;;;4.50;;
63836;SDS011;49991;50.518;30.486;2022-08-19T07:52:44;9.88;;;4.60;;
63836;SDS011;49991;50.518;30.486;2022-08-19T07:55:11;9.95;;;4.55;;
63836;SDS011;49991;50.518;30.486;2022-08-19T07:57:38;8.07;;;5.05;;
63836;SDS011;49991;50.518;30.486;2022-08-19T08:00:05;7.63;;;4.28;;
63836;SDS011;49991;50.518;30.486;2022-08-19T08:02:37;6.95;;;4.68;;
63836;SDS011;49991;50.518;30.486;2022-08-19T08:05:04;7.28;;;5.05;;
63836;SDS011;49991;50.518;30.486;2022-08-19T08:07:50;10.30;;;5.13;;
63836;SDS011;49991;50.518;30.486;2022-08-19T08:10:34;11.27;;;5.20;;
63836;SDS011;49991;50.518;30.486;2022-08-19T08:13:01;9.82;;;4.75;;
63836;SDS011;49991;50.518;30.486;2022-08-19T08:15:30;10.98;;;4.93;;
63836;SDS011;49991;50.518;30.486;2022-08-19T08:17:57;7.55;;;4.32;;
63836;SDS011;49991;50.518;30.486;2022-08-19T08:20:23;11.13;;;4.60;;
63836;SDS011;49991;50.518;30.486;2022-08-19T08:22:52;7.18;;;4.38;;
63836;SDS011;49991;50.518;30.486;2022-08-19T08:25:36;9.13;;;4.90;;
63836;SDS011;49991;50.518;30.486;2022-08-19T08:28:03;13.73;;;5.13;;
63836;SDS011;49991;50.518;30.486;2022-08-19T08:30:30;7.20;;;4.50;;
63836;SDS011;49991;50.518;30.486;2022-08-19T08:33:00;7.55;;;4.93;;
63836;SDS011;49991;50.518;30.486;2022-08-19T08:35:27;8.32;;;4.78;;
63836;SDS011;49991;50.518;30.486;2022-08-19T08:37:56;12.35;;;5.18;;
63836;SDS011;49991;50.518;30.486;2022-08-19T08:40:23;9.60;;;4.63;;
63836;SDS011;49991;50.518;30.486;2022-08-19T08:42:56;8.77;;;5.10;;
63836;SDS011;49991;50.518;30.486;2022-08-19T08:45:30;10.10;;;4.93;;
63836;SDS011;49991;50.518;30.486;2022-08-19T08:48:00;7.35;;;4.90;;
63836;SDS011;49991;50.518;30.486;2022-08-19T08:50:32;8.43;;;5.00;;
63836;SDS011;49991;50.518;30.486;2022-08-19T08:53:05;8.35;;;4.97;;
63836;SDS011;49991;50.518;30.486;2022-08-19T08:55:34;12.15;;;5.60;;
63836;SDS011;49991;50.518;30.486;2022-08-19T08:58:01;10.35;;;5.53;;
63836;SDS011;49991;50.518;30.486;2022-08-19T09:00:32;5.38;;;4.70;;
63836;SDS011;49991;50.518;30.486;2022-08-19T09:03:03;9.85;;;5.00;;
63836;SDS011;49991;50.518;30.486;2022-08-19T09:05:37;9.20;;;5.68;;
63836;SDS011;49991;50.518;30.486;2022-08-19T09:08:11;10.80;;;5.20;;
63836;SDS011;49991;50.518;30.486;2022-08-19T09:10:44;10.82;;;5.13;;
63836;SDS011;49991;50.518;30.486;2022-08-19T09:13:15;7.70;;;4.80;;
63836;SDS011;49991;50.518;30.486;2022-08-19T09:15:54;7.13;;;4.90;;
63836;SDS011;49991;50.518;30.486;2022-08-19T09:18:29;8.65;;;5.30;;
63836;SDS011;49991;50.518;30.486;2022-08-19T09:21:06;11.63;;;5.78;;
63836;SDS011;49991;50.518;30.486;2022-08-19T09:23:35;7.88;;;5.30;;
63836;SDS011;49991;50.518;30.486;2022-08-19T09:26:06;8.25;;;5.32;;
63836;SDS011;49991;50.518;30.486;2022-08-19T09:28:34;10.10;;;5.05;;
63836;SDS011;49991;50.518;30.486;2022-08-19T09:31:02;13.82;;;5.20;;
63836;SDS011;49991;50.518;30.486;2022-08-19T09:33:29;6.30;;;5.20;;
63836;SDS011;49991;50.518;30.486;2022-08-19T09:36:06;9.50;;;4.90;;
63836;SDS011;49991;50.518;30.486;2022-08-19T09:38:35;8.55;;;5.55;;
63836;SDS011;49991;50.518;30.486;2022-08-19T09:41:04;7.95;;;5.30;;
63836;SDS011;49991;50.518;30.486;2022-08-19T09:43:31;12.45;;;5.18;;
63836;SDS011;49991;50.518;30.486;2022-08-19T09:45:59;11.70;;;5.53;;
63836;SDS011;49991;50.518;30.486;2022-08-19T09:48:26;8.77;;;4.97;;
63836;SDS011;49991;50.518;30.486;2022-08-19T09:50:52;9.25;;;4.95;;
63836;SDS011;49991;50.518;30.486;2022-08-19T09:53:19;7.68;;;5.18;;
63836;SDS011;49991;50.518;30.486;2022-08-19T09:55:48;8.25;;;5.32;;
63836;SDS011;49991;50.518;30.486;2022-08-19T09:58:16;8.63;;;4.97;;
63836;SDS011;49991;50.518;30.486;2022-08-19T10:00:42;7.80;;;5.03;;
63836;SDS011;49991;50.518;30.486;2022-08-19T10:03:10;8.35;;;5.65;;
63836;SDS011;49991;50.518;30.486;2022-08-19T10:05:37;9.63;;;5.45;;
63836;SDS011;49991;50.518;30.486;2022-08-19T10:08:17;10.32;;;5.20;;
63836;SDS011;49991;50.518;30.486;2022-08-19T10:10:47;8.95;;;4.78;;
63836;SDS011;49991;50.518;30.486;2022-08-19T10:13:17;9.23;;;5.18;;
63836;SDS011;49991;50.518;30.486;2022-08-19T10:15:47;9.40;;;5.60;;
63836;SDS011;49991;50.518;30.486;2022-08-19T10:18:15;8.68;;;5.80;;
63836;SDS011;49991;50.518;30.486;2022-08-19T10:20:43;9.88;;;5.22;;
63836;SDS011;49991;50.518;30.486;2022-08-19T10:23:10;9.35;;;4.78;;
63836;SDS011;49991;50.518;30.486;2022-08-19T10:25:37;8.38;;;5.20;;
63836;SDS011;49991;50.518;30.486;2022-08-19T10:28:06;10.00;;;4.78;;
63836;SDS011;49991;50.518;30.486;2022-08-19T10:30:32;7.60;;;4.80;;
63836;SDS011;49991;50.518;30.486;2022-08-19T10:32:59;14.82;;;5.95;;
63836;SDS011;49991;50.518;30.486;2022-08-19T10:35:25;11.48;;;5.10;;
63836;SDS011;49991;50.518;30.486;2022-08-19T10:37:54;8.52;;;4.43;;
63836;SDS011;49991;50.518;30.486;2022-08-19T10:40:24;11.15;;;4.75;;
63836;SDS011;49991;50.518;30.486;2022-08-19T10:42:51;11.30;;;4.82;;
63836;SDS011;49991;50.518;30.486;2022-08-19T10:45:19;7.15;;;4.20;;
63836;SDS011;49991;50.518;30.486;2022-08-19T10:47:49;7.63;;;4.20;;
63836;SDS011;49991;50.518;30.486;2022-08-19T10:50:15;9.00;;;4.50;;
63836;SDS011;49991;50.518;30.486;2022-08-19T10:53:02;9.20;;;5.13;;
63836;SDS011;49991;50.518;30.486;2022-08-19T10:55:30;8.65;;;4.18;;
63836;SDS011;49991;50.518;30.486;2022-08-19T10:58:15;5.95;;;4.50;;
63836;SDS011;49991;50.518;30.486;2022-08-19T11:00:52;8.85;;;4.80;;
63836;SDS011;49991;50.518;30.486;2022-08-19T11:03:20;6.25;;;4.35;;
63836;SDS011;49991;50.518;30.486;2022-08-19T11:05:51;7.80;;;4.60;;
63836;SDS011;49991;50.518;30.486;2022-08-19T11:08:23;8.02;;;4.90;;
63836;SDS011;49991;50.518;30.486;2022-08-19T11:10:52;10.48;;;4.50;;
63836;SDS011;49991;50.518;30.486;2022-08-19T11:13:21;10.45;;;4.45;;
63836;SDS011;49991;50.518;30.486;2022-08-19T11:15:57;11.95;;;4.65;;
63836;SDS011;49991;50.518;30.486;2022-08-19T11:18:26;8.27;;;4.07;;
63836;SDS011;49991;50.518;30.486;2022-08-19T11:20:52;6.75;;;4.55;;
63836;SDS011;49991;50.518;30.486;2022-08-19T11:23:19;6.93;;;4.10;;
63836;SDS011;49991;50.518;30.486;2022-08-19T11:25:46;7.32;;;4.40;;
63836;SDS011;49991;50.518;30.486;2022-08-19T11:28:13;8.77;;;4.10;;
63836;SDS011;49991;50.518;30.486;2022-08-19T11:30:40;8.98;;;4.22;;
63836;SDS011;49991;50.518;30.486;2022-08-19T11:33:08;10.52;;;4.68;;
63836;SDS011;49991;50.518;30.486;2022-08-19T11:35:38;6.85;;;4.43;;
63836;SDS011;49991;50.518;30.486;2022-08-19T11:38:06;9.02;;;4.38;;
63836;SDS011;49991;50.518;30.486;2022-08-19T11:40:32;5.65;;;4.60;;
63836;SDS011;49991;50.518;30.486;2022-08-19T11:42:59;10.15;;;4.30;;
63836;SDS011;49991;50.518;30.486;2022-08-19T11:45:26;7.22;;;4.50;;
63836;SDS011;49991;50.518;30.486;2022-08-19T11:47:54;9.60;;;4.70;;
63836;SDS011;49991;50.518;30.486;2022-08-19T11:50:23;6.05;;;4.35;;
63836;SDS011;49991;50.518;30.486;2022-08-19T11:52:52;9.77;;;4.70;;
63836;SDS011;49991;50.518;30.486;2022-08-19T11:55:20;7.13;;;4.85;;
63836;SDS011;49991;50.518;30.486;2022-08-19T11:57:47;10.52;;;4.38;;
63836;SDS011;49991;50.518;30.486;2022-08-19T12:00:13;6.05;;;4.43;;
63836;SDS011;49991;50.518;30.486;2022-08-19T12:02:41;5.22;;;4.35;;
63836;SDS011;49991;50.518;30.486;2022-08-19T12:05:07;6.40;;;4.63;;
63836;SDS011;49991;50.518;30.486;2022-08-19T12:07:36;6.90;;;4.30;;
63836;SDS011;49991;50.518;30.486;2022-08-19T12:10:02;5.72;;;4.15;;
63836;SDS011;49991;50.518;30.486;2022-08-19T12:12:30;5.60;;;4.78;;
63836;SDS011;49991;50.518;30.486;2022-08-19T12:14:56;7.10;;;4.55;;
63836;SDS011;49991;50.518;30.486;2022-08-19T12:17:23;7.72;;;4.50;;
63836;SDS011;49991;50.518;30.486;2022-08-19T12:19:50;6.93;;;4.60;;
63836;SDS011;49991;50.518;30.486;2022-08-19T12:22:17;8.77;;;4.38;;
63836;SDS011;49991;50.518;30.486;2022-08-19T12:24:47;8.88;;;4.72;;
63836;SDS011;49991;50.518;30.486;2022-08-19T12:27:16;9.85;;;4.68;;
63836;SDS011;49991;50.518;30.486;2022-08-19T12:29:42;6.35;;;4.53;;
63836;SDS011;49991;50.518;30.486;2022-08-19T12:32:09;6.75;;;4.28;;
63836;SDS011;49991;50.518;30.486;2022-08-19T12:34:36;5.78;;;4.57;;
63836;SDS011;49991;50.518;30.486;2022-08-19T12:37:03;10.63;;;4.70;;
63836;SDS011;49991;50.518;30.486;2022-08-19T12:39:33;7.95;;;4.70;;
63836;SDS011;49991;50.518;30.486;2022-08-19T12:42:02;9.48;;;4.70;;
63836;SDS011;49991;50.518;30.486;2022-08-19T12:44:29;8.55;;;4.70;;
63836;SDS011;49991;50.518;30.486;2022-08-19T12:46:57;6.05;;;4.70;;
63836;SDS011;49991;50.518;30.486;2022-08-19T12:49:24;7.25;;;4.80;;
63836;SDS011;49991;50.518;30.486;2022-08-19T12:51:53;12.38;;;4.90;;
63836;SDS011;49991;50.518;30.486;2022-08-19T12:54:19;7.07;;;4.70;;
63836;SDS011;49991;50.518;30.486;2022-08-19T12:56:46;8.45;;;4.43;;
63836;SDS011;49991;50.518;30.486;2022-08-19T12:59:14;7.97;;;4.30;;
63836;SDS011;49991;50.518;30.486;2022-08-19T13:01:42;6.45;;;4.28;;
63836;SDS011;49991;50.518;30.486;2022-08-19T13:04:09;10.07;;;4.30;;
63836;SDS011;49991;50.518;30.486;2022-08-19T13:06:36;7.70;;;4.50;;
63836;SDS011;49991;50.518;30.486;2022-08-19T13:09:03;6.95;;;4.50;;
63836;SDS011;49991;50.518;30.486;2022-08-19T13:11:30;6.03;;;4.45;;
63836;SDS011;49991;50.518;30.486;2022-08-19T13:13:59;7.28;;;4.50;;
63836;SDS011;49991;50.518;30.486;2022-08-19T13:16:28;6.85;;;4.63;;
63836;SDS011;49991;50.518;30.486;2022-08-19T13:18:56;14.20;;;5.30;;
63836;SDS011;49991;50.518;30.486;2022-08-19T13:21:24;8.05;;;4.90;;
63836;SDS011;49991;50.518;30.486;2022-08-19T13:23:53;5.05;;;4.38;;
63836;SDS011;49991;50.518;30.486;2022-08-19T13:26:20;9.13;;;4.75;;
63836;SDS011;49991;50.518;30.486;2022-08-19T13:28:47;13.02;;;5.25;;
63836;SDS011;49991;50.518;30.486;2022-08-19T13:31:33;8.32;;;4.38;;
63836;SDS011;49991;50.518;30.486;2022-08-19T13:34:25;5.70;;;4.35;;
63836;SDS011;49991;50.518;30.486;2022-08-19T13:36:54;10.77;;;4.80;;
63836;SDS011;49991;50.518;30.486;2022-08-19T13:39:20;6.88;;;4.30;;
63836;SDS011;49991;50.518;30.486;2022-08-19T13:41:49;8.30;;;4.78;;
63836;SDS011;49991;50.518;30.486;2022-08-19T13:44:16;5.72;;;4.38;;
63836;SDS011;49991;50.518;30.486;2022-08-19T13:46:45;5.70;;;4.53;;
63836;SDS011;49991;50.518;30.486;2022-08-19T13:49:14;10.85;;;4.40;;
63836;SDS011;49991;50.518;30.486;2022-08-19T13:51:41;7.55;;;4.50;;
63836;SDS011;49991;50.518;30.486;2022-08-19T13:54:09;5.57;;;4.30;;
63836;SDS011;49991;50.518;30.486;2022-08-19T13:56:39;8.80;;;4.60;;
63836;SDS011;49991;50.518;30.486;2022-08-19T13:59:07;5.75;;;4.57;;
63836;SDS011;49991;50.518;30.486;2022-08-19T14:01:34;6.95;;;4.40;;
63836;SDS011;49991;50.518;30.486;2022-08-19T14:04:02;8.60;;;4.90;;
63836;SDS011;49991;50.518;30.486;2022-08-19T14:06:31;8.60;;;5.05;;
63836;SDS011;49991;50.518;30.486;2022-08-19T14:08:58;7.20;;;4.30;;
63836;SDS011;49991;50.518;30.486;2022-08-19T14:11:25;11.40;;;4.80;;
63836;SDS011;49991;50.518;30.486;2022-08-19T14:13:52;7.55;;;4.68;;
63836;SDS011;49991;50.518;30.486;2022-08-19T14:16:19;9.82;;;4.47;;
63836;SDS011;49991;50.518;30.486;2022-08-19T14:18:46;9.77;;;4.63;;
63836;SDS011;49991;50.518;30.486;2022-08-19T14:21:15;6.70;;;5.00;;
63836;SDS011;49991;50.518;30.486;2022-08-19T14:23:43;6.75;;;4.38;;
63836;SDS011;49991;50.518;30.486;2022-08-19T14:26:11;6.13;;;4.60;;
63836;SDS011;49991;50.518;30.486;2022-08-19T14:28:40;11.57;;;4.70;;
63836;SDS011;49991;50.518;30.486;2022-08-19T14:31:08;6.28;;;4.55;;
63836;SDS011;49991;50.518;30.486;2022-08-19T14:33:35;6.45;;;4.50;;
63836;SDS011;49991;50.518;30.486;2022-08-19T14:36:01;6.30;;;4.25;;
63836;SDS011;49991;50.518;30.486;2022-08-19T14:38:30;6.25;;;4.80;;
63836;SDS011;49991;50.518;30.486;2022-08-19T14:41:05;12.00;;;4.43;;
63836;SDS011;49991;50.518;30.486;2022-08-19T14:43:32;5.45;;;4.35;;